sensor_id;sensor_type;location;lat;lon;timestamp;temperature;humidity
24800;DHT22;12897;50.812;4.430;2024-02-14T00:00:52;9.60;99.90
24800;DHT22;12897;50.812;4.430;2024-02-14T00:03:25;9.70;99.90
24800;DHT22;12897;50.812;4.430;2024-02-14T00:08:44;9.70;99.90
24800;DHT22;12897;50.812;4.430;2024-02-14T00:11:20;9.70;99.90
24800;DHT22;12897;50.812;4.430;2024-02-14T00:13:58;9.70;99.90
24800;DHT22;12897;50.812;4.430;2024-02-14T00:16:39;9.80;99.90
24800;DHT22;12897;50.812;4.430;2024-02-14T00:19:13;9.80;99.90
24800;DHT22;12897;50.812;4.430;2024-02-14T00:21:52;9.80;99.90
24800;DHT22;12897;50.812;4.430;2024-02-14T00:24:27;10.00;99.90
24800;DHT22;12897;50.812;4.430;2024-02-14T00:27:15;9.90;99.90
24800;DHT22;12897;50.812;4.430;2024-02-14T00:29:41;9.90;99.90
24800;DHT22;12897;50.812;4.430;2024-02-14T00:32:25;9.80;99.90
24800;DHT22;12897;50.812;4.430;2024-02-14T00:35:04;10.00;99.90
24800;DHT22;12897;50.812;4.430;2024-02-14T00:37:38;9.90;99.90
24800;DHT22;12897;50.812;4.430;2024-02-14T00:40:16;9.90;99.90
24800;DHT22;12897;50.812;4.430;2024-02-14T00:42:56;10.00;99.90
24800;DHT22;12897;50.812;4.430;2024-02-14T00:45:30;10.00;99.90
24800;DHT22;12897;50.812;4.430;2024-02-14T00:48:20;10.00;99.90
24800;DHT22;12897;50.812;4.430;2024-02-14T00:50:50;10.10;99.90
24800;DHT22;12897;50.812;4.430;2024-02-14T00:53:22;10.10;99.90
24800;DHT22;12897;50.812;4.430;2024-02-14T00:56:00;10.10;99.90
24800;DHT22;12897;50.812;4.430;2024-02-14T00:58:37;10.10;99.90
24800;DHT22;12897;50.812;4.430;2024-02-14T01:01:17;10.00;99.90
24800;DHT22;12897;50.812;4.430;2024-02-14T01:04:06;10.00;99.90
24800;DHT22;12897;50.812;4.430;2024-02-14T01:06:35;10.10;99.90
24800;DHT22;12897;50.812;4.430;2024-02-14T01:09:13;10.10;99.90
24800;DHT22;12897;50.812;4.430;2024-02-14T01:11:42;10.00;99.90
24800;DHT22;12897;50.812;4.430;2024-02-14T01:14:36;10.00;99.90
24800;DHT22;12897;50.812;4.430;2024-02-14T01:16:58;10.10;99.90
24800;DHT22;12897;50.812;4.430;2024-02-14T01:19:43;10.00;99.90
24800;DHT22;12897;50.812;4.430;2024-02-14T01:22:09;10.00;99.90
24800;DHT22;12897;50.812;4.430;2024-02-14T01:24:53;9.90;99.90
24800;DHT22;12897;50.812;4.430;2024-02-14T01:27:43;10.00;99.90
24800;DHT22;12897;50.812;4.430;2024-02-14T01:30:06;9.90;99.90
24800;DHT22;12897;50.812;4.430;2024-02-14T01:32:37;9.80;99.90
24800;DHT22;12897;50.812;4.430;2024-02-14T01:35:20;9.90;99.90
24800;DHT22;12897;50.812;4.430;2024-02-14T01:37:59;9.90;99.90
24800;DHT22;12897;50.812;4.430;2024-02-14T01:40:35;9.90;99.90
24800;DHT22;12897;50.812;4.430;2024-02-14T01:43:15;10.00;99.90
24800;DHT22;12897;50.812;4.430;2024-02-14T01:45:54;10.10;99.90
24800;DHT22;12897;50.812;4.430;2024-02-14T01:48:27;10.20;99.90
24800;DHT22;12897;50.812;4.430;2024-02-14T01:51:05;10.20;99.90
24800;DHT22;12897;50.812;4.430;2024-02-14T01:53:37;10.10;99.90
24800;DHT22;12897;50.812;4.430;2024-02-14T01:56:09;10.10;99.90
24800;DHT22;12897;50.812;4.430;2024-02-14T01:58:39;10.00;99.90
24800;DHT22;12897;50.812;4.430;2024-02-14T02:01:18;9.90;99.90
24800;DHT22;12897;50.812;4.430;2024-02-14T02:03:49;9.90;99.90
24800;DHT22;12897;50.812;4.430;2024-02-14T02:06:21;9.90;99.90
24800;DHT22;12897;50.812;4.430;2024-02-14T02:08:54;10.00;99.90
24800;DHT22;12897;50.812;4.430;2024-02-14T02:11:24;10.00;99.90
24800;DHT22;12897;50.812;4.430;2024-02-14T02:13:54;9.90;99.90
24800;DHT22;12897;50.812;4.430;2024-02-14T02:16:25;10.00;99.90
24800;DHT22;12897;50.812;4.430;2024-02-14T02:18:57;10.10;99.90
24800;DHT22;12897;50.812;4.430;2024-02-14T02:21:41;10.10;99.90
24800;DHT22;12897;50.812;4.430;2024-02-14T02:24:03;10.10;99.90
24800;DHT22;12897;50.812;4.430;2024-02-14T02:26:41;10.20;99.90
24800;DHT22;12897;50.812;4.430;2024-02-14T02:29:10;10.10;99.90
24800;DHT22;12897;50.812;4.430;2024-02-14T02:31:47;10.00;99.90
24800;DHT22;12897;50.812;4.430;2024-02-14T02:34:18;10.00;99.90
24800;DHT22;12897;50.812;4.430;2024-02-14T02:36:51;10.20;99.90
24800;DHT22;12897;50.812;4.430;2024-02-14T02:39:27;10.10;99.90
24800;DHT22;12897;50.812;4.430;2024-02-14T02:41:59;10.10;99.90
24800;DHT22;12897;50.812;4.430;2024-02-14T02:44:27;10.20;99.90
24800;DHT22;12897;50.812;4.430;2024-02-14T02:46:58;10.20;99.90
24800;DHT22;12897;50.812;4.430;2024-02-14T02:49:37;10.30;99.90
24800;DHT22;12897;50.812;4.430;2024-02-14T02:51:57;10.20;99.90
24800;DHT22;12897;50.812;4.430;2024-02-14T02:54:40;10.30;99.90
24800;DHT22;12897;50.812;4.430;2024-02-14T02:57:11;10.30;99.90
24800;DHT22;12897;50.812;4.430;2024-02-14T02:59:48;10.20;99.90
24800;DHT22;12897;50.812;4.430;2024-02-14T03:02:22;10.20;99.90
24800;DHT22;12897;50.812;4.430;2024-02-14T03:04:52;10.30;99.90
24800;DHT22;12897;50.812;4.430;2024-02-14T03:07:22;10.40;99.90
24800;DHT22;12897;50.812;4.430;2024-02-14T03:09:54;10.50;99.90
24800;DHT22;12897;50.812;4.430;2024-02-14T03:12:38;10.40;99.90
24800;DHT22;12897;50.812;4.430;2024-02-14T03:15:12;10.50;99.90
24800;DHT22;12897;50.812;4.430;2024-02-14T03:17:41;10.40;99.90
24800;DHT22;12897;50.812;4.430;2024-02-14T03:20:22;10.40;99.90
24800;DHT22;12897;50.812;4.430;2024-02-14T03:22:52;10.40;99.90
24800;DHT22;12897;50.812;4.430;2024-02-14T03:25:30;10.40;99.90
24800;DHT22;12897;50.812;4.430;2024-02-14T03:28:03;10.40;99.90
24800;DHT22;12897;50.812;4.430;2024-02-14T03:30:30;10.50;99.90
24800;DHT22;12897;50.812;4.430;2024-02-14T03:33:06;10.70;99.90
24800;DHT22;12897;50.812;4.430;2024-02-14T03:35:31;10.60;99.90
24800;DHT22;12897;50.812;4.430;2024-02-14T03:38:05;10.50;99.90
24800;DHT22;12897;50.812;4.430;2024-02-14T03:40:39;10.50;99.90
24800;DHT22;12897;50.812;4.430;2024-02-14T03:43:14;10.50;99.90
24800;DHT22;12897;50.812;4.430;2024-02-14T03:45:43;10.50;99.90
24800;DHT22;12897;50.812;4.430;2024-02-14T03:48:25;10.50;99.90
24800;DHT22;12897;50.812;4.430;2024-02-14T03:50:46;10.40;99.90
24800;DHT22;12897;50.812;4.430;2024-02-14T03:53:16;10.40;99.90
24800;DHT22;12897;50.812;4.430;2024-02-14T03:55:51;10.40;99.90
24800;DHT22;12897;50.812;4.430;2024-02-14T03:58:30;10.40;99.90
24800;DHT22;12897;50.812;4.430;2024-02-14T04:01:06;10.30;99.90
24800;DHT22;12897;50.812;4.430;2024-02-14T04:03:37;10.30;99.90
24800;DHT22;12897;50.812;4.430;2024-02-14T04:06:04;10.40;99.90
24800;DHT22;12897;50.812;4.430;2024-02-14T04:08:41;10.30;99.90
24800;DHT22;12897;50.812;4.430;2024-02-14T04:11:07;10.40;99.90
24800;DHT22;12897;50.812;4.430;2024-02-14T04:13:38;10.40;99.90
24800;DHT22;12897;50.812;4.430;2024-02-14T04:16:06;10.50;99.90
24800;DHT22;12897;50.812;4.430;2024-02-14T04:18:39;10.50;99.90
24800;DHT22;12897;50.812;4.430;2024-02-14T04:21:18;10.50;99.90
24800;DHT22;12897;50.812;4.430;2024-02-14T04:23:44;10.60;99.90
24800;DHT22;12897;50.812;4.430;2024-02-14T04:26:30;10.50;99.90
24800;DHT22;12897;50.812;4.430;2024-02-14T04:28:57;10.50;99.90
24800;DHT22;12897;50.812;4.430;2024-02-14T04:31:34;10.60;99.90
24800;DHT22;12897;50.812;4.430;2024-02-14T04:34:04;10.60;99.90
24800;DHT22;12897;50.812;4.430;2024-02-14T04:36:48;10.60;99.90
24800;DHT22;12897;50.812;4.430;2024-02-14T04:39:21;10.50;99.90
24800;DHT22;12897;50.812;4.430;2024-02-14T04:41:56;10.60;99.90
24800;DHT22;12897;50.812;4.430;2024-02-14T04:47:21;10.70;99.90
24800;DHT22;12897;50.812;4.430;2024-02-14T04:49:52;10.70;99.90
24800;DHT22;12897;50.812;4.430;2024-02-14T04:52:29;10.50;99.90
24800;DHT22;12897;50.812;4.430;2024-02-14T04:54:56;10.50;99.90
24800;DHT22;12897;50.812;4.430;2024-02-14T04:57:28;10.50;99.90
24800;DHT22;12897;50.812;4.430;2024-02-14T05:00:06;10.60;99.90
24800;DHT22;12897;50.812;4.430;2024-02-14T05:02:44;10.60;99.90
24800;DHT22;12897;50.812;4.430;2024-02-14T05:05:21;10.70;99.90
24800;DHT22;12897;50.812;4.430;2024-02-14T05:07:54;10.70;99.90
24800;DHT22;12897;50.812;4.430;2024-02-14T05:10:37;10.60;99.90
24800;DHT22;12897;50.812;4.430;2024-02-14T05:13:13;10.70;99.90
24800;DHT22;12897;50.812;4.430;2024-02-14T05:15:56;10.70;99.90
24800;DHT22;12897;50.812;4.430;2024-02-14T05:18:31;10.70;99.90
24800;DHT22;12897;50.812;4.430;2024-02-14T05:21:33;10.60;99.90
24800;DHT22;12897;50.812;4.430;2024-02-14T05:24:07;10.70;99.90
24800;DHT22;12897;50.812;4.430;2024-02-14T05:26:56;10.80;99.90
24800;DHT22;12897;50.812;4.430;2024-02-14T05:32:50;10.40;99.90
24800;DHT22;12897;50.812;4.430;2024-02-14T05:35:30;10.60;99.90
24800;DHT22;12897;50.812;4.430;2024-02-14T05:38:08;10.70;99.90
24800;DHT22;12897;50.812;4.430;2024-02-14T05:40:36;10.60;99.90
24800;DHT22;12897;50.812;4.430;2024-02-14T05:43:17;10.70;99.90
24800;DHT22;12897;50.812;4.430;2024-02-14T05:45:46;10.60;99.90
24800;DHT22;12897;50.812;4.430;2024-02-14T05:48:19;10.50;99.90
24800;DHT22;12897;50.812;4.430;2024-02-14T05:50:54;10.70;99.90
24800;DHT22;12897;50.812;4.430;2024-02-14T05:53:25;10.70;99.90
24800;DHT22;12897;50.812;4.430;2024-02-14T05:55:58;10.70;99.90
24800;DHT22;12897;50.812;4.430;2024-02-14T05:58:30;10.70;99.90
24800;DHT22;12897;50.812;4.430;2024-02-14T06:00:58;10.80;99.90
24800;DHT22;12897;50.812;4.430;2024-02-14T06:03:40;10.80;99.90
24800;DHT22;12897;50.812;4.430;2024-02-14T06:06:04;10.80;99.90
24800;DHT22;12897;50.812;4.430;2024-02-14T06:08:35;10.80;99.90
24800;DHT22;12897;50.812;4.430;2024-02-14T06:11:06;10.90;99.90
24800;DHT22;12897;50.812;4.430;2024-02-14T06:13:37;10.90;99.90
24800;DHT22;12897;50.812;4.430;2024-02-14T06:16:32;11.00;99.90
24800;DHT22;12897;50.812;4.430;2024-02-14T06:33:12;11.10;99.90
24800;DHT22;12897;50.812;4.430;2024-02-14T06:35:45;11.00;99.90
24800;DHT22;12897;50.812;4.430;2024-02-14T06:38:17;11.10;99.90
24800;DHT22;12897;50.812;4.430;2024-02-14T06:40:50;11.20;99.90
24800;DHT22;12897;50.812;4.430;2024-02-14T06:43:27;11.10;99.90
24800;DHT22;12897;50.812;4.430;2024-02-14T06:45:59;11.10;99.90
24800;DHT22;12897;50.812;4.430;2024-02-14T06:48:40;11.10;99.90
24800;DHT22;12897;50.812;4.430;2024-02-14T06:51:14;11.20;99.90
24800;DHT22;12897;50.812;4.430;2024-02-14T06:54:02;11.30;99.90
24800;DHT22;12897;50.812;4.430;2024-02-14T06:56:32;11.10;99.90
24800;DHT22;12897;50.812;4.430;2024-02-14T06:59:03;11.10;99.90
24800;DHT22;12897;50.812;4.430;2024-02-14T07:01:32;11.20;99.90
24800;DHT22;12897;50.812;4.430;2024-02-14T07:04:09;11.20;99.90
24800;DHT22;12897;50.812;4.430;2024-02-14T07:06:46;11.40;99.90
24800;DHT22;12897;50.812;4.430;2024-02-14T07:09:16;11.40;99.90
24800;DHT22;12897;50.812;4.430;2024-02-14T07:11:48;11.30;99.90
24800;DHT22;12897;50.812;4.430;2024-02-14T07:14:22;11.20;99.90
24800;DHT22;12897;50.812;4.430;2024-02-14T07:16:55;11.40;99.90
24800;DHT22;12897;50.812;4.430;2024-02-14T07:19:26;11.40;99.90
24800;DHT22;12897;50.812;4.430;2024-02-14T07:22:00;11.40;99.90
24800;DHT22;12897;50.812;4.430;2024-02-14T07:24:53;11.40;99.90
24800;DHT22;12897;50.812;4.430;2024-02-14T07:27:34;11.40;99.90
24800;DHT22;12897;50.812;4.430;2024-02-14T07:30:13;11.50;99.90
24800;DHT22;12897;50.812;4.430;2024-02-14T07:32:43;11.40;99.90
24800;DHT22;12897;50.812;4.430;2024-02-14T07:38:00;11.50;99.90
24800;DHT22;12897;50.812;4.430;2024-02-14T07:40:31;11.50;99.90
24800;DHT22;12897;50.812;4.430;2024-02-14T07:43:03;11.50;99.90
24800;DHT22;12897;50.812;4.430;2024-02-14T07:48:24;11.60;99.90
24800;DHT22;12897;50.812;4.430;2024-02-14T07:50:50;11.70;99.90
24800;DHT22;12897;50.812;4.430;2024-02-14T07:53:24;11.80;99.90
24800;DHT22;12897;50.812;4.430;2024-02-14T07:55:57;11.70;99.90
24800;DHT22;12897;50.812;4.430;2024-02-14T07:58:25;11.90;99.90
24800;DHT22;12897;50.812;4.430;2024-02-14T08:01:08;12.00;99.90
24800;DHT22;12897;50.812;4.430;2024-02-14T08:03:38;12.00;99.90
24800;DHT22;12897;50.812;4.430;2024-02-14T08:06:21;12.00;99.90
24800;DHT22;12897;50.812;4.430;2024-02-14T08:08:44;12.10;99.90
24800;DHT22;12897;50.812;4.430;2024-02-14T08:11:17;12.00;99.90
24800;DHT22;12897;50.812;4.430;2024-02-14T08:17:25;11.80;99.90
24800;DHT22;12897;50.812;4.430;2024-02-14T08:20:22;12.00;99.90
24800;DHT22;12897;50.812;4.430;2024-02-14T08:22:56;11.70;99.90
24800;DHT22;12897;50.812;4.430;2024-02-14T08:25:31;11.80;99.90
24800;DHT22;12897;50.812;4.430;2024-02-14T08:27:54;11.80;99.90
24800;DHT22;12897;50.812;4.430;2024-02-14T08:30:26;11.70;99.90
24800;DHT22;12897;50.812;4.430;2024-02-14T08:33:07;11.80;99.90
24800;DHT22;12897;50.812;4.430;2024-02-14T08:35:53;11.90;99.90
24800;DHT22;12897;50.812;4.430;2024-02-14T08:38:18;12.00;99.90
24800;DHT22;12897;50.812;4.430;2024-02-14T08:41:14;12.00;99.90
24800;DHT22;12897;50.812;4.430;2024-02-14T08:43:52;12.10;99.90
24800;DHT22;12897;50.812;4.430;2024-02-14T08:49:00;12.10;99.90
24800;DHT22;12897;50.812;4.430;2024-02-14T08:51:36;12.20;99.90
24800;DHT22;12897;50.812;4.430;2024-02-14T08:54:13;12.20;99.90
24800;DHT22;12897;50.812;4.430;2024-02-14T08:56:45;12.00;99.90
24800;DHT22;12897;50.812;4.430;2024-02-14T08:59:24;11.90;99.90
24800;DHT22;12897;50.812;4.430;2024-02-14T09:01:54;12.00;99.90
24800;DHT22;12897;50.812;4.430;2024-02-14T09:04:37;12.10;99.90
24800;DHT22;12897;50.812;4.430;2024-02-14T09:07:15;12.00;99.90
24800;DHT22;12897;50.812;4.430;2024-02-14T09:09:47;12.10;99.90
24800;DHT22;12897;50.812;4.430;2024-02-14T09:12:22;12.10;99.90
24800;DHT22;12897;50.812;4.430;2024-02-14T09:14:49;12.10;99.90
24800;DHT22;12897;50.812;4.430;2024-02-14T09:17:29;12.10;99.90
24800;DHT22;12897;50.812;4.430;2024-02-14T09:22:25;12.10;99.90
24800;DHT22;12897;50.812;4.430;2024-02-14T09:24:54;12.20;99.90
24800;DHT22;12897;50.812;4.430;2024-02-14T09:27:28;12.30;99.90
24800;DHT22;12897;50.812;4.430;2024-02-14T09:29:54;12.40;99.90
24800;DHT22;12897;50.812;4.430;2024-02-14T09:32:24;12.20;99.90
24800;DHT22;12897;50.812;4.430;2024-02-14T09:34:54;12.10;99.90
24800;DHT22;12897;50.812;4.430;2024-02-14T09:37:30;11.90;99.90
24800;DHT22;12897;50.812;4.430;2024-02-14T09:39:58;11.90;99.90
24800;DHT22;12897;50.812;4.430;2024-02-14T09:42:49;11.90;99.90
24800;DHT22;12897;50.812;4.430;2024-02-14T09:45:22;12.00;99.90
24800;DHT22;12897;50.812;4.430;2024-02-14T09:47:57;12.00;99.90
24800;DHT22;12897;50.812;4.430;2024-02-14T09:50:31;12.00;99.90
24800;DHT22;12897;50.812;4.430;2024-02-14T09:53:04;12.20;99.90
24800;DHT22;12897;50.812;4.430;2024-02-14T09:55:38;12.10;99.90
24800;DHT22;12897;50.812;4.430;2024-02-14T09:58:15;12.10;99.90
24800;DHT22;12897;50.812;4.430;2024-02-14T10:00:38;12.10;99.90
24800;DHT22;12897;50.812;4.430;2024-02-14T10:03:14;12.30;99.90
24800;DHT22;12897;50.812;4.430;2024-02-14T10:05:42;12.10;99.90
24800;DHT22;12897;50.812;4.430;2024-02-14T10:08:19;12.00;99.90
24800;DHT22;12897;50.812;4.430;2024-02-14T10:10:53;12.00;99.90
24800;DHT22;12897;50.812;4.430;2024-02-14T10:13:29;12.00;99.90
24800;DHT22;12897;50.812;4.430;2024-02-14T10:16:05;12.20;99.90
24800;DHT22;12897;50.812;4.430;2024-02-14T10:18:32;12.20;99.90
24800;DHT22;12897;50.812;4.430;2024-02-14T10:21:06;12.20;99.90
24800;DHT22;12897;50.812;4.430;2024-02-14T10:23:41;12.20;99.90
24800;DHT22;12897;50.812;4.430;2024-02-14T10:28:53;12.40;99.90
24800;DHT22;12897;50.812;4.430;2024-02-14T10:31:28;12.40;99.90
24800;DHT22;12897;50.812;4.430;2024-02-14T10:33:57;12.40;99.90
24800;DHT22;12897;50.812;4.430;2024-02-14T10:36:28;12.30;99.90
24800;DHT22;12897;50.812;4.430;2024-02-14T10:39:06;12.40;99.90
24800;DHT22;12897;50.812;4.430;2024-02-14T10:41:37;12.40;99.90
24800;DHT22;12897;50.812;4.430;2024-02-14T10:44:09;12.40;99.90
24800;DHT22;12897;50.812;4.430;2024-02-14T10:46:44;12.60;99.90
24800;DHT22;12897;50.812;4.430;2024-02-14T10:49:12;12.50;99.90
24800;DHT22;12897;50.812;4.430;2024-02-14T10:51:43;12.30;99.90
24800;DHT22;12897;50.812;4.430;2024-02-14T10:54:18;12.30;99.90
24800;DHT22;12897;50.812;4.430;2024-02-14T10:57:04;12.40;99.90
24800;DHT22;12897;50.812;4.430;2024-02-14T10:59:41;12.50;99.90
24800;DHT22;12897;50.812;4.430;2024-02-14T11:02:23;12.60;99.90
24800;DHT22;12897;50.812;4.430;2024-02-14T11:04:59;12.80;99.90
24800;DHT22;12897;50.812;4.430;2024-02-14T11:07:29;12.80;99.90
24800;DHT22;12897;50.812;4.430;2024-02-14T11:12:35;12.90;99.90
24800;DHT22;12897;50.812;4.430;2024-02-14T11:15:22;12.70;99.90
24800;DHT22;12897;50.812;4.430;2024-02-14T11:18:02;12.60;99.90
24800;DHT22;12897;50.812;4.430;2024-02-14T11:20:32;12.60;99.90
24800;DHT22;12897;50.812;4.430;2024-02-14T11:23:06;12.60;99.90
24800;DHT22;12897;50.812;4.430;2024-02-14T11:25:41;12.60;99.90
24800;DHT22;12897;50.812;4.430;2024-02-14T11:28:17;12.60;99.90
24800;DHT22;12897;50.812;4.430;2024-02-14T11:30:46;12.60;99.90
24800;DHT22;12897;50.812;4.430;2024-02-14T11:33:16;12.60;99.90
24800;DHT22;12897;50.812;4.430;2024-02-14T11:35:48;12.80;99.90
24800;DHT22;12897;50.812;4.430;2024-02-14T11:38:20;12.90;99.90
24800;DHT22;12897;50.812;4.430;2024-02-14T11:40:48;12.90;99.90
24800;DHT22;12897;50.812;4.430;2024-02-14T11:43:17;12.80;99.90
24800;DHT22;12897;50.812;4.430;2024-02-14T11:45:46;12.80;99.90
24800;DHT22;12897;50.812;4.430;2024-02-14T11:48:16;12.60;99.90
24800;DHT22;12897;50.812;4.430;2024-02-14T11:50:45;12.60;99.90
24800;DHT22;12897;50.812;4.430;2024-02-14T11:53:15;12.70;99.90
24800;DHT22;12897;50.812;4.430;2024-02-14T11:55:46;12.70;99.90
24800;DHT22;12897;50.812;4.430;2024-02-14T11:58:16;12.80;99.90
24800;DHT22;12897;50.812;4.430;2024-02-14T12:00:45;12.80;99.90
24800;DHT22;12897;50.812;4.430;2024-02-14T12:03:25;12.60;99.90
24800;DHT22;12897;50.812;4.430;2024-02-14T12:05:52;12.70;99.90
24800;DHT22;12897;50.812;4.430;2024-02-14T12:08:22;12.80;99.90
24800;DHT22;12897;50.812;4.430;2024-02-14T12:10:50;12.80;99.90
24800;DHT22;12897;50.812;4.430;2024-02-14T12:13:20;12.80;99.90
24800;DHT22;12897;50.812;4.430;2024-02-14T12:15:49;12.80;99.90
24800;DHT22;12897;50.812;4.430;2024-02-14T12:18:18;12.80;99.90
24800;DHT22;12897;50.812;4.430;2024-02-14T12:20:46;12.80;99.90
24800;DHT22;12897;50.812;4.430;2024-02-14T12:23:17;12.90;99.90
24800;DHT22;12897;50.812;4.430;2024-02-14T12:25:45;12.90;99.90
24800;DHT22;12897;50.812;4.430;2024-02-14T12:28:15;12.90;99.90
24800;DHT22;12897;50.812;4.430;2024-02-14T12:30:49;13.00;99.90
24800;DHT22;12897;50.812;4.430;2024-02-14T12:33:19;13.10;99.90
24800;DHT22;12897;50.812;4.430;2024-02-14T12:35:48;13.00;99.90
24800;DHT22;12897;50.812;4.430;2024-02-14T12:38:17;13.10;99.90
24800;DHT22;12897;50.812;4.430;2024-02-14T12:40:45;13.00;99.90
24800;DHT22;12897;50.812;4.430;2024-02-14T12:43:14;13.00;99.90
24800;DHT22;12897;50.812;4.430;2024-02-14T12:45:42;12.90;99.90
24800;DHT22;12897;50.812;4.430;2024-02-14T12:48:11;13.00;99.90
24800;DHT22;12897;50.812;4.430;2024-02-14T12:50:40;13.00;99.90
24800;DHT22;12897;50.812;4.430;2024-02-14T12:53:09;13.10;99.90
24800;DHT22;12897;50.812;4.430;2024-02-14T12:55:37;13.10;99.90
24800;DHT22;12897;50.812;4.430;2024-02-14T12:58:04;13.10;99.90
24800;DHT22;12897;50.812;4.430;2024-02-14T13:00:32;13.20;99.90
24800;DHT22;12897;50.812;4.430;2024-02-14T13:03:00;13.20;99.90
24800;DHT22;12897;50.812;4.430;2024-02-14T13:05:28;13.20;99.90
24800;DHT22;12897;50.812;4.430;2024-02-14T13:07:55;13.30;99.90
24800;DHT22;12897;50.812;4.430;2024-02-14T13:10:24;13.20;99.90
24800;DHT22;12897;50.812;4.430;2024-02-14T13:12:51;13.30;99.90
24800;DHT22;12897;50.812;4.430;2024-02-14T13:15:19;13.40;99.90
24800;DHT22;12897;50.812;4.430;2024-02-14T13:17:47;13.30;99.90
24800;DHT22;12897;50.812;4.430;2024-02-14T13:20:15;13.30;99.90
24800;DHT22;12897;50.812;4.430;2024-02-14T13:22:42;13.30;99.90
24800;DHT22;12897;50.812;4.430;2024-02-14T13:25:10;13.30;99.90
24800;DHT22;12897;50.812;4.430;2024-02-14T13:27:37;13.20;99.90
24800;DHT22;12897;50.812;4.430;2024-02-14T13:30:06;13.10;99.90
24800;DHT22;12897;50.812;4.430;2024-02-14T13:32:34;13.00;99.90
24800;DHT22;12897;50.812;4.430;2024-02-14T13:35:04;13.10;99.90
24800;DHT22;12897;50.812;4.430;2024-02-14T13:37:32;13.10;99.90
24800;DHT22;12897;50.812;4.430;2024-02-14T13:40:00;13.10;99.90
24800;DHT22;12897;50.812;4.430;2024-02-14T13:42:30;13.10;99.90
24800;DHT22;12897;50.812;4.430;2024-02-14T13:44:57;13.10;99.90
24800;DHT22;12897;50.812;4.430;2024-02-14T13:47:25;13.00;99.90
24800;DHT22;12897;50.812;4.430;2024-02-14T13:49:52;13.10;99.90
24800;DHT22;12897;50.812;4.430;2024-02-14T13:52:20;13.10;99.90
24800;DHT22;12897;50.812;4.430;2024-02-14T13:54:47;13.10;99.90
24800;DHT22;12897;50.812;4.430;2024-02-14T13:57:15;13.20;99.90
24800;DHT22;12897;50.812;4.430;2024-02-14T13:59:42;13.10;99.90
24800;DHT22;12897;50.812;4.430;2024-02-14T14:02:12;13.10;99.90
24800;DHT22;12897;50.812;4.430;2024-02-14T14:04:39;13.20;99.90
24800;DHT22;12897;50.812;4.430;2024-02-14T14:07:07;13.20;99.90
24800;DHT22;12897;50.812;4.430;2024-02-14T14:09:34;13.20;99.90
24800;DHT22;12897;50.812;4.430;2024-02-14T14:12:02;13.20;99.90
24800;DHT22;12897;50.812;4.430;2024-02-14T14:14:29;13.20;99.90
24800;DHT22;12897;50.812;4.430;2024-02-14T14:16:57;13.20;99.90
24800;DHT22;12897;50.812;4.430;2024-02-14T14:19:24;13.20;99.90
24800;DHT22;12897;50.812;4.430;2024-02-14T14:21:52;13.20;99.90
24800;DHT22;12897;50.812;4.430;2024-02-14T14:24:21;13.20;99.90
24800;DHT22;12897;50.812;4.430;2024-02-14T14:26:50;13.20;99.90
24800;DHT22;12897;50.812;4.430;2024-02-14T14:29:18;13.20;99.90
24800;DHT22;12897;50.812;4.430;2024-02-14T14:31:45;13.30;99.90
24800;DHT22;12897;50.812;4.430;2024-02-14T14:34:13;13.30;99.90
24800;DHT22;12897;50.812;4.430;2024-02-14T14:36:41;13.20;99.90
24800;DHT22;12897;50.812;4.430;2024-02-14T14:39:08;13.30;99.90
24800;DHT22;12897;50.812;4.430;2024-02-14T14:41:43;13.30;99.90
24800;DHT22;12897;50.812;4.430;2024-02-14T14:44:11;13.30;99.90
24800;DHT22;12897;50.812;4.430;2024-02-14T14:46:38;13.40;99.90
24800;DHT22;12897;50.812;4.430;2024-02-14T14:49:11;13.40;99.90
24800;DHT22;12897;50.812;4.430;2024-02-14T14:51:39;13.40;99.90
24800;DHT22;12897;50.812;4.430;2024-02-14T14:54:06;13.30;99.90
24800;DHT22;12897;50.812;4.430;2024-02-14T14:56:34;13.40;99.90
24800;DHT22;12897;50.812;4.430;2024-02-14T14:59:01;13.40;99.90
24800;DHT22;12897;50.812;4.430;2024-02-14T15:01:33;13.50;99.90
24800;DHT22;12897;50.812;4.430;2024-02-14T15:04:02;13.50;99.90
24800;DHT22;12897;50.812;4.430;2024-02-14T15:06:30;13.60;99.90
24800;DHT22;12897;50.812;4.430;2024-02-14T15:08:57;13.60;99.90
24800;DHT22;12897;50.812;4.430;2024-02-14T15:11:25;13.50;99.90
24800;DHT22;12897;50.812;4.430;2024-02-14T15:13:53;13.60;99.90
24800;DHT22;12897;50.812;4.430;2024-02-14T15:16:21;13.60;99.90
24800;DHT22;12897;50.812;4.430;2024-02-14T15:18:49;13.60;99.90
24800;DHT22;12897;50.812;4.430;2024-02-14T15:21:17;13.60;99.90
24800;DHT22;12897;50.812;4.430;2024-02-14T15:23:44;13.60;99.90
24800;DHT22;12897;50.812;4.430;2024-02-14T15:26:12;13.70;99.90
24800;DHT22;12897;50.812;4.430;2024-02-14T15:28:41;13.60;99.90
24800;DHT22;12897;50.812;4.430;2024-02-14T15:31:08;13.60;99.90
24800;DHT22;12897;50.812;4.430;2024-02-14T15:33:54;13.60;99.90
24800;DHT22;12897;50.812;4.430;2024-02-14T15:36:22;13.70;99.90
24800;DHT22;12897;50.812;4.430;2024-02-14T15:38:49;13.70;99.90
24800;DHT22;12897;50.812;4.430;2024-02-14T15:41:18;13.80;99.90
24800;DHT22;12897;50.812;4.430;2024-02-14T15:43:46;13.80;99.90
24800;DHT22;12897;50.812;4.430;2024-02-14T15:46:14;13.80;99.90
24800;DHT22;12897;50.812;4.430;2024-02-14T15:48:44;13.70;99.90
24800;DHT22;12897;50.812;4.430;2024-02-14T15:51:11;13.70;99.90
24800;DHT22;12897;50.812;4.430;2024-02-14T15:53:41;13.60;99.90
24800;DHT22;12897;50.812;4.430;2024-02-14T15:56:08;13.70;99.90
24800;DHT22;12897;50.812;4.430;2024-02-14T15:58:37;13.80;99.90
24800;DHT22;12897;50.812;4.430;2024-02-14T16:01:05;13.80;99.90
24800;DHT22;12897;50.812;4.430;2024-02-14T16:03:33;13.80;99.90
24800;DHT22;12897;50.812;4.430;2024-02-14T16:06:01;13.90;99.90
24800;DHT22;12897;50.812;4.430;2024-02-14T16:08:30;13.90;99.90
24800;DHT22;12897;50.812;4.430;2024-02-14T16:10:57;13.80;99.90
24800;DHT22;12897;50.812;4.430;2024-02-14T16:13:25;13.60;99.90
24800;DHT22;12897;50.812;4.430;2024-02-14T16:15:53;13.50;99.90
24800;DHT22;12897;50.812;4.430;2024-02-14T16:18:21;13.50;99.90
24800;DHT22;12897;50.812;4.430;2024-02-14T16:20:49;13.50;99.90
24800;DHT22;12897;50.812;4.430;2024-02-14T16:23:17;13.50;99.90
24800;DHT22;12897;50.812;4.430;2024-02-14T16:25:45;13.60;99.90
24800;DHT22;12897;50.812;4.430;2024-02-14T16:28:14;13.60;99.90
24800;DHT22;12897;50.812;4.430;2024-02-14T16:30:42;13.50;99.90
24800;DHT22;12897;50.812;4.430;2024-02-14T16:33:11;13.50;99.90
24800;DHT22;12897;50.812;4.430;2024-02-14T16:35:38;13.50;99.90
24800;DHT22;12897;50.812;4.430;2024-02-14T16:38:06;13.50;99.90
24800;DHT22;12897;50.812;4.430;2024-02-14T16:40:35;13.40;99.90
24800;DHT22;12897;50.812;4.430;2024-02-14T16:43:02;13.40;99.90
24800;DHT22;12897;50.812;4.430;2024-02-14T16:45:31;13.40;99.90
24800;DHT22;12897;50.812;4.430;2024-02-14T16:47:58;13.40;99.90